Time;durP1;ratioP1;P1;durP2;ratioP2;P2;SDS_P1;SDS_P2;PMS_P1;PMS_P2;Temp;Humidity;BMP_temperature;BMP_pressure;BME280_temperature;BME280_humidity;BME280_pressure;Samples;Min_cycle;Max_cycle;Signal;HPM_P1;HPM_P2
2024/01/17 00:01:45;;;;;;;9.43;4.18;;;2.90;60.80;;;;;;5042014;28;20043;-63
2024/01/17 00:04:15;;;;;;;5.78;2.40;;;2.90;60.80;;;;;;5035555;28;20425;-64
2024/01/17 00:06:43;;;;;;;11.25;2.88;;;3.00;60.70;;;;;;5037947;28;20083;-66
2024/01/17 00:09:14;;;;;;;1.25;1.25;;;3.00;60.60;;;;;;5039964;28;20083;-64
2024/01/17 00:11:43;;;;;;;3.80;1.92;;;3.00;60.50;;;;;;5032243;28;20267;-65
2024/01/17 00:14:12;;;;;;;6.57;2.95;;;3.00;60.60;;;;;;5040323;28;20067;-64
2024/01/17 00:16:40;;;;;;;1.70;1.45;;;3.00;60.60;;;;;;5040568;28;20052;-66
2024/01/17 00:19:08;;;;;;;2.67;2.33;;;3.00;60.50;;;;;;5033772;28;20542;-65
2024/01/17 00:21:37;;;;;;;2.15;1.90;;;3.10;60.60;;;;;;5030708;28;20084;-64
2024/01/17 00:24:05;;;;;;;3.67;1.70;;;3.10;60.60;;;;;;5037571;28;20418;-66
2024/01/17 00:26:35;;;;;;;2.58;1.15;;;3.10;60.50;;;;;;5040742;28;20063;-65
2024/01/17 00:29:03;;;;;;;4.43;2.25;;;3.20;60.50;;;;;;5040024;28;20114;-65
2024/01/17 00:31:32;;;;;;;4.60;2.15;;;3.20;60.40;;;;;;5039981;28;20056;-65
2024/01/17 00:34:01;;;;;;;13.68;3.28;;;3.30;60.40;;;;;;5033432;28;20709;-64
2024/01/17 00:36:29;;;;;;;7.65;1.85;;;3.30;61.10;;;;;;5041010;28;20063;-63
2024/01/17 00:38:58;;;;;;;7.40;4.10;;;3.30;60.20;;;;;;5037484;28;20068;-64
2024/01/17 00:41:26;;;;;;;4.60;2.72;;;3.30;60.00;;;;;;5048173;28;20049;-67
2024/01/17 00:43:56;;;;;;;16.77;6.25;;;3.30;59.90;;;;;;5065717;28;20135;-63
2024/01/17 00:46:24;;;;;;;6.97;3.25;;;3.20;59.80;;;;;;5054298;28;20140;-63
2024/01/17 00:48:53;;;;;;;9.52;4.15;;;3.20;59.80;;;;;;5055802;28;20102;-66
2024/01/17 00:51:25;;;;;;;30.73;9.40;;;3.20;59.90;;;;;;5074728;28;20422;-65
2024/01/17 00:53:54;;;;;;;7.63;2.65;;;3.20;59.90;;;;;;5077766;28;20497;-63
2024/01/17 00:56:22;;;;;;;8.90;2.85;;;3.30;59.90;;;;;;5062712;28;20171;-65
2024/01/17 00:58:50;;;;;;;8.02;2.60;;;3.30;59.90;;;;;;5055421;28;20056;-64
2024/01/17 01:01:20;;;;;;;6.90;2.38;;;3.40;60.00;;;;;;5056127;28;20067;-64
2024/01/17 01:03:48;;;;;;;2.67;2.47;;;3.50;60.10;;;;;;5066100;28;20048;-63
2024/01/17 01:06:17;;;;;;;2.70;1.65;;;3.60;60.20;;;;;;5059317;28;20060;-64
2024/01/17 01:08:45;;;;;;;4.05;1.75;;;3.80;60.30;;;;;;5060570;28;20665;-64
2024/01/17 01:11:13;;;;;;;12.52;3.42;;;3.90;60.10;;;;;;5060484;28;20135;-64
2024/01/17 01:13:42;;;;;;;2.03;1.88;;;4.00;60.20;;;;;;5054835;28;20561;-64
2024/01/17 01:16:10;;;;;;;1.23;1.23;;;4.10;60.00;;;;;;5076098;28;20790;-65
2024/01/17 01:18:40;;;;;;;1.23;1.13;;;4.20;59.90;;;;;;5059941;28;20056;-61
2024/01/17 01:21:08;;;;;;;3.42;1.58;;;4.30;59.90;;;;;;5060431;28;20048;-61
2024/01/17 01:23:36;;;;;;;7.25;2.65;;;4.40;59.90;;;;;;5050960;28;20099;-62
2024/01/17 01:26:05;;;;;;;1.38;1.27;;;4.50;59.80;;;;;;5080814;28;20048;-63
2024/01/17 01:28:33;;;;;;;4.22;1.83;;;4.60;59.90;;;;;;5055782;28;20146;-62
2024/01/17 01:31:01;;;;;;;2.70;1.80;;;4.70;59.80;;;;;;5057139;28;20724;-62
2024/01/17 01:33:30;;;;;;;1.98;1.80;;;4.70;59.60;;;;;;5055161;28;20137;-59
2024/01/17 01:35:59;;;;;;;2.03;1.75;;;4.80;59.30;;;;;;5076382;28;20056;-61
2024/01/17 01:38:28;;;;;;;4.25;1.70;;;4.80;59.50;;;;;;5056455;28;20060;-59
2024/01/17 01:40:58;;;;;;;2.05;1.05;;;4.80;59.20;;;;;;5059725;28;20426;-61
2024/01/17 01:43:27;;;;;;;5.57;2.90;;;4.80;59.20;;;;;;5049673;28;20642;-61
2024/01/17 01:46:15;;;;;;;5.18;1.95;;;4.80;58.80;;;;;;5071050;28;20134;-62
2024/01/17 01:48:44;;;;;;;7.65;3.42;;;4.90;59.10;;;;;;5048486;28;20056;-61
2024/01/17 01:51:15;;;;;;;4.50;1.55;;;4.90;59.00;;;;;;5054861;28;20049;-62
2024/01/17 01:53:45;;;;;;;13.48;4.35;;;4.90;59.00;;;;;;5061426;28;20047;-60
2024/01/17 01:56:16;;;;;;;5.30;2.13;;;4.90;59.40;;;;;;5063357;28;20528;-60
2024/01/17 01:58:48;;;;;;;3.70;1.92;;;5.00;59.00;;;;;;5066489;28;20060;-61
2024/01/17 02:01:18;;;;;;;1.48;1.15;;;5.00;59.00;;;;;;5072703;28;20045;-62
2024/01/17 02:03:49;;;;;;;1.63;1.50;;;5.10;59.00;;;;;;5056192;28;21094;-61
2024/01/17 02:06:19;;;;;;;22.15;2.92;;;5.10;58.90;;;;;;5076820;28;20056;-62
2024/01/17 02:08:48;;;;;;;6.85;1.77;;;5.20;58.90;;;;;;5061862;28;20537;-61
2024/01/17 02:11:17;;;;;;;2.58;1.45;;;5.20;58.80;;;;;;5068665;28;20056;-60
2024/01/17 02:13:45;;;;;;;8.38;2.33;;;5.20;58.90;;;;;;5055386;28;20915;-61
2024/01/17 02:16:15;;;;;;;2.92;1.58;;;5.20;58.80;;;;;;5077169;28;20044;-62
2024/01/17 02:18:44;;;;;;;1.25;1.15;;;5.20;58.70;;;;;;5063276;28;20049;-60
2024/01/17 02:21:12;;;;;;;2.78;2.35;;;5.20;58.70;;;;;;5059697;28;20056;-62
2024/01/17 02:23:42;;;;;;;2.92;2.00;;;5.20;59.10;;;;;;5059475;28;20098;-62
2024/01/17 02:26:12;;;;;;;2.88;2.25;;;5.20;58.50;;;;;;5061851;28;20084;-60
2024/01/17 02:28:40;;;;;;;5.43;3.05;;;5.20;58.60;;;;;;5066549;28;20506;-62
2024/01/17 02:31:08;;;;;;;0.88;0.88;;;5.20;58.70;;;;;;5057329;28;20117;-63
2024/01/17 02:33:37;;;;;;;2.05;1.50;;;5.20;58.40;;;;;;5056446;28;20059;-62
2024/01/17 02:36:06;;;;;;;2.28;1.67;;;5.10;58.50;;;;;;5065029;28;20133;-60
2024/01/17 02:38:34;;;;;;;2.10;1.90;;;5.10;58.40;;;;;;5063139;28;20169;-62
2024/01/17 02:41:03;;;;;;;12.15;2.35;;;5.10;58.30;;;;;;5057728;28;20056;-61
2024/01/17 02:43:33;;;;;;;3.10;1.60;;;5.10;58.50;;;;;;5062558;28;20055;-62
2024/01/17 02:46:01;;;;;;;4.45;1.90;;;5.10;58.40;;;;;;5075117;28;20124;-61
2024/01/17 02:48:29;;;;;;;3.92;2.53;;;5.00;58.20;;;;;;5062597;28;20056;-61
2024/01/17 02:50:58;;;;;;;1.38;1.20;;;5.00;58.40;;;;;;5066776;28;20055;-61
2024/01/17 02:53:28;;;;;;;6.20;1.67;;;5.00;58.40;;;;;;5060566;28;20135;-58
2024/01/17 02:55:56;;;;;;;2.40;1.52;;;5.00;58.40;;;;;;5060324;28;20064;-62
2024/01/17 02:58:24;;;;;;;1.23;1.20;;;5.10;58.50;;;;;;5072483;28;20053;-60
2024/01/17 03:00:54;;;;;;;7.60;2.30;;;5.10;58.50;;;;;;5060200;28;20052;-61
2024/01/17 03:03:24;;;;;;;5.70;1.67;;;5.10;58.40;;;;;;5080050;28;20064;-73
2024/01/17 03:05:54;;;;;;;2.97;1.42;;;5.10;58.30;;;;;;5054731;28;20060;-62
2024/01/17 03:08:23;;;;;;;3.40;1.85;;;5.10;58.20;;;;;;5067747;28;20048;-61
2024/01/17 03:10:51;;;;;;;9.00;3.20;;;5.10;58.30;;;;;;5077405;28;20063;-61
2024/01/17 03:13:20;;;;;;;2.58;1.98;;;5.10;58.10;;;;;;5070064;28;20045;-64
2024/01/17 03:15:49;;;;;;;11.55;3.10;;;5.10;58.20;;;;;;5059862;28;21282;-59
2024/01/17 03:18:19;;;;;;;4.38;2.03;;;5.10;58.30;;;;;;5054565;28;20147;-60
2024/01/17 03:20:48;;;;;;;12.65;4.05;;;5.20;58.40;;;;;;5049393;28;20618;-61
2024/01/17 03:23:17;;;;;;;4.45;2.03;;;5.30;58.40;;;;;;5044653;28;20057;-61
2024/01/17 03:25:45;;;;;;;17.25;2.15;;;5.40;58.40;;;;;;5065076;28;20255;-63
2024/01/17 03:28:14;;;;;;;55.72;4.47;;;5.40;58.40;;;;;;5051258;28;20044;-61
2024/01/17 03:30:43;;;;;;;11.88;3.03;;;5.50;58.10;;;;;;5051859;28;20056;-63
2024/01/17 03:33:12;;;;;;;1.10;1.10;;;5.50;58.10;;;;;;5055041;28;20063;-60
2024/01/17 03:35:43;;;;;;;2.85;2.03;;;5.30;57.90;;;;;;5050632;28;20052;-61
2024/01/17 03:38:11;;;;;;;2.78;2.50;;;5.60;57.80;;;;;;5068951;28;20143;-62
2024/01/17 03:40:40;;;;;;;5.00;1.45;;;5.60;58.80;;;;;;5065424;28;20520;-61
2024/01/17 03:43:09;;;;;;;12.07;3.00;;;5.70;57.90;;;;;;5059370;28;20060;-62
2024/01/17 03:45:38;;;;;;;49.05;3.10;;;5.70;57.80;;;;;;5063936;28;20436;-61
2024/01/17 03:48:07;;;;;;;2.88;1.63;;;5.70;57.80;;;;;;5063251;28;20056;-62
2024/01/17 03:50:36;;;;;;;4.25;2.67;;;5.80;57.90;;;;;;5049058;28;20083;-61
2024/01/17 03:53:07;;;;;;;5.63;2.80;;;5.90;57.90;;;;;;5063100;28;20048;-61
2024/01/17 03:55:35;;;;;;;13.20;3.75;;;5.90;57.80;;;;;;5068085;28;20048;-61
2024/01/17 03:58:04;;;;;;;5.63;2.40;;;6.00;57.80;;;;;;5075886;28;20057;-63
2024/01/17 04:00:32;;;;;;;4.45;2.78;;;6.00;57.60;;;;;;5055723;28;20060;-62
2024/01/17 04:03:01;;;;;;;8.55;3.03;;;6.00;57.60;;;;;;5055602;28;20072;-61
2024/01/17 04:05:51;;;;;;;4.70;1.70;;;6.00;57.60;;;;;;5059657;28;20083;-62
2024/01/17 04:08:23;;;;;;;35.15;4.68;;;6.00;57.50;;;;;;5058360;28;20082;-62
2024/01/17 04:10:52;;;;;;;1.02;0.90;;;6.00;57.50;;;;;;5059651;28;20052;-61
2024/01/17 04:13:21;;;;;;;1.88;1.70;;;6.00;57.20;;;;;;5061433;28;20052;-61
2024/01/17 04:15:50;;;;;;;3.03;1.58;;;5.90;56.70;;;;;;5077296;28;20044;-60
2024/01/17 04:18:19;;;;;;;16.52;2.53;;;5.80;57.40;;;;;;5060169;28;20052;-62
2024/01/17 04:20:47;;;;;;;0.90;0.90;;;5.80;57.00;;;;;;5051046;28;20619;-60
2024/01/17 04:23:16;;;;;;;1.88;1.77;;;5.80;57.10;;;;;;5071500;28;20747;-63
2024/01/17 04:25:46;;;;;;;1.42;1.15;;;5.80;57.10;;;;;;5049470;28;20702;-60
2024/01/17 04:28:14;;;;;;;1.02;1.00;;;5.70;57.00;;;;;;5062709;28;20398;-61
2024/01/17 04:30:44;;;;;;;2.75;1.35;;;5.80;57.30;;;;;;5062491;28;20051;-61
2024/01/17 04:33:12;;;;;;;14.57;2.33;;;5.90;57.30;;;;;;5063153;28;20053;-61
2024/01/17 04:35:41;;;;;;;25.98;9.93;;;5.90;57.60;;;;;;5044977;28;20104;-60
2024/01/17 04:38:09;;;;;;;2.33;1.60;;;5.90;57.30;;;;;;5059809;28;20076;-61
2024/01/17 04:40:37;;;;;;;7.88;2.65;;;6.00;57.20;;;;;;5066705;28;20056;-61
2024/01/17 04:43:07;;;;;;;104.50;12.60;;;6.00;57.00;;;;;;5049870;28;20120;-61
2024/01/17 04:45:36;;;;;;;19.80;5.90;;;6.00;57.10;;;;;;5032195;28;20041;-60
2024/01/17 04:48:07;;;;;;;6.20;2.35;;;6.00;57.20;;;;;;5039993;28;20068;-62
2024/01/17 04:50:36;;;;;;;4.07;1.73;;;6.00;57.10;;;;;;5039097;28;20084;-63
2024/01/17 04:53:05;;;;;;;1.25;1.15;;;6.10;57.10;;;;;;5040801;28;20075;-61
2024/01/17 04:55:35;;;;;;;2.35;1.95;;;6.10;57.00;;;;;;5034068;28;20052;-62
2024/01/17 04:58:04;;;;;;;0.93;0.93;;;6.10;57.10;;;;;;5040305;28;20060;-61
2024/01/17 05:00:34;;;;;;;1.77;1.27;;;6.10;57.10;;;;;;5041289;28;20529;-66
2024/01/17 05:03:02;;;;;;;3.85;1.38;;;6.10;56.90;;;;;;5037069;28;20125;-61
2024/01/17 05:05:30;;;;;;;1.02;0.95;;;6.10;56.70;;;;;;5035121;28;20060;-61
2024/01/17 05:07:58;;;;;;;12.23;2.65;;;6.00;56.90;;;;;;5039946;28;20053;-62
2024/01/17 05:10:27;;;;;;;2.58;1.13;;;6.00;56.50;;;;;;5029380;28;20110;-60
2024/01/17 05:12:55;;;;;;;55.45;4.03;;;6.00;56.90;;;;;;5036078;28;20049;-63
2024/01/17 05:15:24;;;;;;;62.92;3.22;;;6.10;57.00;;;;;;5038531;28;20059;-59
2024/01/17 05:17:54;;;;;;;24.02;4.22;;;6.20;57.00;;;;;;5049435;28;20128;-61
2024/01/17 05:20:23;;;;;;;0.80;0.80;;;6.30;57.60;;;;;;5032874;28;20107;-61
2024/01/17 05:22:51;;;;;;;16.35;4.32;;;6.30;57.10;;;;;;5034649;28;20064;-61
2024/01/17 05:25:19;;;;;;;14.77;2.13;;;6.30;56.70;;;;;;5033731;28;20057;-62
2024/01/17 05:27:51;;;;;;;12.27;3.80;;;6.30;56.70;;;;;;5026271;28;21835;-62
2024/01/17 05:30:20;;;;;;;1.60;1.50;;;6.30;56.70;;;;;;5039434;28;20421;-62
2024/01/17 05:32:48;;;;;;;29.38;3.47;;;6.30;57.40;;;;;;5038888;28;20813;-61
2024/01/17 05:35:18;;;;;;;4.18;1.75;;;6.30;56.60;;;;;;5040922;28;20080;-61
2024/01/17 05:37:47;;;;;;;30.70;3.83;;;6.30;56.50;;;;;;5053186;28;21845;-63
2024/01/17 05:40:16;;;;;;;2.45;1.30;;;6.20;56.60;;;;;;5052181;28;20483;-62
2024/01/17 05:42:46;;;;;;;1.25;1.15;;;6.20;56.60;;;;;;5050048;28;20045;-61
2024/01/17 05:45:14;;;;;;;4.35;1.98;;;6.20;56.60;;;;;;5033470;28;20061;-61
2024/01/17 05:47:43;;;;;;;1.52;1.25;;;6.20;56.70;;;;;;5030980;28;20736;-64
2024/01/17 05:50:11;;;;;;;1.13;1.02;;;5.90;56.60;;;;;;5035951;28;20106;-61
2024/01/17 05:52:43;;;;;;;1.42;1.00;;;6.20;57.20;;;;;;5036402;28;20115;-60
2024/01/17 05:55:13;;;;;;;6.00;1.92;;;6.20;56.70;;;;;;5033466;28;20426;-65
2024/01/17 05:57:41;;;;;;;35.97;3.88;;;6.10;56.40;;;;;;5025695;28;20065;-62
2024/01/17 06:00:12;;;;;;;19.10;3.00;;;6.10;56.90;;;;;;5034505;28;20118;-62
2024/01/17 06:02:42;;;;;;;51.35;5.28;;;6.20;56.70;;;;;;5036689;28;20493;-61
2024/01/17 06:05:11;;;;;;;24.63;3.53;;;6.30;56.70;;;;;;5031446;28;20434;-63
2024/01/17 06:07:40;;;;;;;5.53;2.90;;;6.40;56.50;;;;;;5028501;28;20057;-63
2024/01/17 06:10:13;;;;;;;5.90;2.75;;;6.40;57.10;;;;;;5045786;28;20124;-62
2024/01/17 06:12:42;;;;;;;10.15;3.83;;;6.40;56.50;;;;;;5037737;28;20179;-64
2024/01/17 06:15:12;;;;;;;27.73;2.25;;;6.40;56.90;;;;;;5034772;28;20061;-62
2024/01/17 06:17:42;;;;;;;7.78;1.48;;;6.40;56.30;;;;;;5028625;28;20068;-62
2024/01/17 06:20:14;;;;;;;1.33;1.00;;;6.30;56.20;;;;;;5045001;28;20057;-61
2024/01/17 06:22:42;;;;;;;3.60;1.85;;;6.20;56.20;;;;;;5034032;28;20075;-69
2024/01/17 06:25:20;;;;;;;3.72;2.10;;;6.20;56.40;;;;;;5037233;28;20409;-61
2024/01/17 06:28:03;;;;;;;7.95;2.47;;;6.30;56.60;;;;;;5029213;28;20061;-61
2024/01/17 06:30:31;;;;;;;36.08;3.03;;;6.30;56.80;;;;;;5031963;28;20057;-62
2024/01/17 06:33:00;;;;;;;51.95;5.80;;;6.40;56.70;;;;;;5037315;28;20056;-62
2024/01/17 06:35:29;;;;;;;17.42;4.18;;;6.50;56.60;;;;;;5032996;28;20059;-63
2024/01/17 06:37:57;;;;;;;4.13;2.33;;;6.50;56.50;;;;;;5037474;28;20053;-62
2024/01/17 06:40:27;;;;;;;1.85;1.25;;;6.60;56.40;;;;;;5034306;28;20137;-62
2024/01/17 06:42:55;;;;;;;11.00;2.28;;;6.60;56.30;;;;;;5033251;28;20054;-61
2024/01/17 06:45:25;;;;;;;33.47;3.40;;;6.60;56.30;;;;;;5031331;28;20259;-61
2024/01/17 06:47:54;;;;;;;27.52;2.75;;;6.60;56.20;;;;;;5045518;28;20037;-63
2024/01/17 06:50:22;;;;;;;3.08;1.83;;;6.60;56.20;;;;;;5034280;28;20072;-60
2024/01/17 06:52:51;;;;;;;20.17;2.58;;;6.60;56.30;;;;;;5038341;28;20442;-62
2024/01/17 06:55:19;;;;;;;1.88;1.35;;;6.60;56.20;;;;;;5034740;28;20063;-62
2024/01/17 06:57:49;;;;;;;16.63;2.53;;;6.60;56.20;;;;;;5047828;28;20053;-63
2024/01/17 07:00:18;;;;;;;4.65;2.28;;;6.60;56.10;;;;;;5034564;28;20069;-62
2024/01/17 07:02:47;;;;;;;19.35;3.53;;;6.60;56.10;;;;;;5050795;28;20044;-67
2024/01/17 07:05:17;;;;;;;15.15;3.08;;;6.60;56.10;;;;;;5040387;28;20053;-61
2024/01/17 07:07:45;;;;;;;38.55;5.70;;;6.50;56.10;;;;;;5032014;28;20079;-62
2024/01/17 07:10:14;;;;;;;57.17;3.67;;;6.60;56.40;;;;;;5041855;28;20049;-63
2024/01/17 07:12:42;;;;;;;0.98;0.90;;;6.60;56.10;;;;;;5031475;28;20060;-63
2024/01/17 07:15:13;;;;;;;15.18;2.25;;;6.60;56.30;;;;;;5035361;28;20147;-61
2024/01/17 07:17:41;;;;;;;3.13;1.73;;;6.50;56.10;;;;;;5024676;28;20065;-62
2024/01/17 07:20:12;;;;;;;4.30;1.77;;;6.50;55.80;;;;;;5038320;28;20072;-61
2024/01/17 07:22:42;;;;;;;2.35;1.42;;;6.40;56.00;;;;;;5041704;28;20918;-61
2024/01/17 07:25:10;;;;;;;7.05;2.10;;;6.50;56.00;;;;;;5034382;28;20075;-58
2024/01/17 07:27:40;;;;;;;20.10;1.83;;;6.40;55.90;;;;;;5018134;28;20067;-63
2024/01/17 07:30:11;;;;;;;2.25;1.63;;;6.40;55.90;;;;;;5051635;28;20049;-63
2024/01/17 07:32:41;;;;;;;12.55;2.58;;;6.50;56.00;;;;;;5033329;28;20045;-62
2024/01/17 07:35:10;;;;;;;15.98;2.33;;;6.50;55.90;;;;;;5037578;28;20289;-62
2024/01/17 07:37:38;;;;;;;19.75;3.17;;;6.40;55.70;;;;;;5034860;28;20102;-61
2024/01/17 07:40:09;;;;;;;3.72;2.13;;;6.40;55.70;;;;;;5040521;28;20110;-62
2024/01/17 07:42:37;;;;;;;3.08;1.42;;;6.40;55.40;;;;;;5039717;28;20057;-63
2024/01/17 07:45:07;;;;;;;45.03;6.25;;;6.50;55.80;;;;;;5054598;28;20084;-62
2024/01/17 07:47:35;;;;;;;2.30;1.50;;;6.60;55.80;;;;;;5051814;28;20067;-62
2024/01/17 07:50:06;;;;;;;2.65;1.90;;;6.60;55.70;;;;;;5056249;28;20063;-62
2024/01/17 07:52:34;;;;;;;1.45;1.10;;;6.60;55.50;;;;;;5057535;28;20052;-61
2024/01/17 07:55:03;;;;;;;7.78;2.58;;;6.60;55.50;;;;;;5063880;28;20064;-63
2024/01/17 07:57:35;;;;;;;5.38;1.35;;;6.70;55.50;;;;;;5055252;28;20176;-62
2024/01/17 08:00:05;;;;;;;6.22;2.78;;;6.80;55.40;;;;;;5073669;28;20071;-63
2024/01/17 08:02:39;;;;;;;7.82;3.17;;;6.80;55.30;;;;;;5060826;28;20072;-60
2024/01/17 08:05:09;;;;;;;23.48;2.38;;;6.90;55.70;;;;;;5061502;28;20554;-63
2024/01/17 08:07:37;;;;;;;4.85;2.20;;;7.00;55.70;;;;;;5056613;28;20064;-63
2024/01/17 08:10:06;;;;;;;2.90;1.30;;;7.10;55.30;;;;;;5061540;28;20087;-63
2024/01/17 08:12:36;;;;;;;13.35;2.63;;;7.10;55.00;;;;;;5062334;28;20056;-62
2024/01/17 08:15:08;;;;;;;33.10;5.22;;;7.20;55.40;;;;;;5068577;28;20454;-62
2024/01/17 08:17:37;;;;;;;6.25;2.92;;;7.30;55.60;;;;;;5044025;28;20075;-63
2024/01/17 08:20:08;;;;;;;2.85;1.67;;;7.50;55.60;;;;;;5056803;28;20692;-65
2024/01/17 08:22:36;;;;;;;4.47;1.95;;;7.60;55.30;;;;;;5063858;28;20568;-58
2024/01/17 08:25:05;;;;;;;5.90;2.83;;;7.60;55.20;;;;;;5065340;28;20064;-63
2024/01/17 08:27:33;;;;;;;4.28;2.65;;;7.60;55.10;;;;;;5069423;28;20681;-63
2024/01/17 08:30:00;;;;;;;18.25;3.15;;;7.60;55.10;;;;;;5054949;28;20076;-62
2024/01/17 08:32:29;;;;;;;14.15;4.28;;;7.70;55.20;;;;;;5078682;28;20051;-62
2024/01/17 08:34:57;;;;;;;17.05;3.88;;;7.80;55.60;;;;;;5056505;28;20049;-62
2024/01/17 08:37:27;;;;;;;63.90;6.45;;;7.90;55.60;;;;;;5058472;28;20056;-60
2024/01/17 08:39:55;;;;;;;12.75;3.28;;;8.00;55.40;;;;;;5057871;28;20472;-63
2024/01/17 08:42:24;;;;;;;25.08;3.58;;;8.20;55.30;;;;;;5053515;28;20095;-62
2024/01/17 08:44:52;;;;;;;2.40;2.10;;;8.40;55.20;;;;;;5025860;28;20049;-62
2024/01/17 08:47:20;;;;;;;9.30;3.05;;;8.50;55.10;;;;;;5055765;28;20526;-63
2024/01/17 08:49:49;;;;;;;6.78;2.55;;;8.60;54.80;;;;;;5033425;28;20057;-62
2024/01/17 08:52:18;;;;;;;17.17;1.95;;;8.60;54.20;;;;;;5034186;28;20523;-68
2024/01/17 08:54:47;;;;;;;2.58;2.22;;;8.50;53.90;;;;;;5034471;28;20065;-63
2024/01/17 08:57:15;;;;;;;4.68;1.52;;;8.40;53.80;;;;;;5036137;28;20140;-69
2024/01/17 08:59:44;;;;;;;16.02;1.73;;;8.40;54.00;;;;;;5029930;28;20084;-62
2024/01/17 09:02:12;;;;;;;12.45;2.05;;;8.50;54.40;;;;;;5039991;28;20056;-61
2024/01/17 09:04:41;;;;;;;1.73;1.20;;;8.60;54.50;;;;;;5051958;28;20048;-62
2024/01/17 09:07:09;;;;;;;1.70;1.60;;;8.60;54.10;;;;;;5048519;28;20068;-63
2024/01/17 09:09:37;;;;;;;3.50;1.40;;;8.70;53.80;;;;;;5052045;28;20063;-63
2024/01/17 09:12:08;;;;;;;19.27;3.92;;;8.70;53.60;;;;;;5046820;28;20467;-62
2024/01/17 09:14:41;;;;;;;7.38;2.72;;;8.70;53.40;;;;;;5052937;28;20056;-64
2024/01/17 09:17:09;;;;;;;6.95;1.50;;;8.70;53.40;;;;;;5036937;28;20136;-62
2024/01/17 09:19:38;;;;;;;4.50;2.25;;;8.70;53.60;;;;;;5036741;28;20065;-61
2024/01/17 09:22:07;;;;;;;2.35;1.67;;;8.70;53.10;;;;;;5060952;28;20811;-64
2024/01/17 09:24:36;;;;;;;1.95;1.55;;;8.70;53.00;;;;;;5046086;28;20049;-62
2024/01/17 09:27:05;;;;;;;5.13;2.50;;;8.60;52.80;;;;;;5046638;28;20060;-63
2024/01/17 09:29:35;;;;;;;23.15;1.88;;;8.60;53.00;;;;;;5036161;28;20091;-63
2024/01/17 09:32:04;;;;;;;0.88;0.85;;;8.70;53.20;;;;;;5038562;28;20060;-61
2024/01/17 09:34:33;;;;;;;1.10;1.10;;;8.70;52.70;;;;;;5038683;28;20053;-62
2024/01/17 09:37:02;;;;;;;15.02;2.20;;;8.70;52.30;;;;;;5044365;28;20129;-63
2024/01/17 09:39:31;;;;;;;13.82;3.35;;;8.70;52.30;;;;;;5034386;28;20866;-62
2024/01/17 09:42:00;;;;;;;19.40;1.58;;;8.80;53.00;;;;;;5058628;28;20540;-63
2024/01/17 09:44:28;;;;;;;5.07;1.50;;;9.00;53.00;;;;;;5019739;28;20321;-62
2024/01/17 09:46:59;;;;;;;11.85;1.63;;;9.10;52.90;;;;;;5024283;28;20067;-61
2024/01/17 09:49:28;;;;;;;10.57;2.78;;;9.20;52.60;;;;;;5015152;28;20106;-64
2024/01/17 09:51:56;;;;;;;10.25;3.20;;;9.30;52.40;;;;;;5034877;28;20057;-63
2024/01/17 09:54:26;;;;;;;45.88;4.63;;;9.40;52.70;;;;;;5038097;28;20119;-61
2024/01/17 09:56:56;;;;;;;13.43;1.88;;;9.50;52.80;;;;;;5021846;28;20156;-62
2024/01/17 09:59:28;;;;;;;20.25;1.73;;;9.70;53.00;;;;;;5021152;28;20132;-63
2024/01/17 10:01:58;;;;;;;4.07;2.28;;;9.90;52.80;;;;;;5013615;28;20053;-63
2024/01/17 10:04:26;;;;;;;5.07;1.38;;;10.10;52.60;;;;;;5030046;28;20426;-61
2024/01/17 10:06:55;;;;;;;7.53;1.98;;;10.10;52.30;;;;;;5024398;28;20522;-63
2024/01/17 10:09:25;;;;;;;7.82;2.47;;;10.20;52.40;;;;;;5018693;28;20566;-62
2024/01/17 10:11:53;;;;;;;32.55;2.10;;;10.20;52.20;;;;;;5020509;28;20113;-64
2024/01/17 10:14:24;;;;;;;26.35;2.80;;;10.20;51.90;;;;;;5034731;28;20140;-65
2024/01/17 10:16:52;;;;;;;10.60;1.70;;;10.20;52.10;;;;;;5023226;28;20077;-63
2024/01/17 10:19:25;;;;;;;10.68;1.90;;;10.30;52.40;;;;;;5028382;28;20057;-64
2024/01/17 10:21:54;;;;;;;11.93;1.40;;;10.40;52.40;;;;;;5013102;28;20053;-63
2024/01/17 10:24:22;;;;;;;25.80;3.22;;;10.60;52.50;;;;;;5028317;28;20061;-63
2024/01/17 10:26:51;;;;;;;12.15;2.00;;;10.80;52.70;;;;;;5018549;28;20060;-64
2024/01/17 10:29:20;;;;;;;14.60;2.35;;;10.90;52.40;;;;;;5020989;28;20490;-61
2024/01/17 10:31:48;;;;;;;8.00;1.80;;;11.00;52.20;;;;;;5015314;28;20107;-62
2024/01/17 10:34:16;;;;;;;1.58;1.25;;;11.10;52.10;;;;;;5020984;28;20062;-62
2024/01/17 10:36:46;;;;;;;1.27;1.17;;;11.20;52.30;;;;;;5032834;28;20140;-64
2024/01/17 10:39:20;;;;;;;3.03;1.75;;;11.20;51.50;;;;;;5020355;28;20061;-62
2024/01/17 10:41:54;;;;;;;3.75;1.60;;;11.00;51.30;;;;;;5014439;28;20061;-64
2024/01/17 10:44:25;;;;;;;4.32;2.00;;;10.80;51.70;;;;;;5041306;28;20498;-61
2024/01/17 10:46:54;;;;;;;14.93;1.88;;;10.70;52.40;;;;;;5040496;28;20132;-64
2024/01/17 10:49:23;;;;;;;4.45;2.15;;;10.50;52.10;;;;;;5047791;28;20045;-62
2024/01/17 10:52:01;;;;;;;11.82;2.33;;;10.40;52.40;;;;;;5035498;28;20415;-61
2024/01/17 10:54:44;;;;;;;3.22;1.90;;;10.40;52.60;;;;;;5039295;28;20048;-63
2024/01/17 10:57:15;;;;;;;3.45;1.70;;;10.40;52.90;;;;;;5034634;28;20149;-63
2024/01/17 10:59:47;;;;;;;4.10;2.25;;;10.30;52.70;;;;;;5033797;28;20068;-61
2024/01/17 11:02:19;;;;;;;4.35;1.65;;;10.30;52.80;;;;;;5032439;28;20044;-63
2024/01/17 11:04:53;;;;;;;3.25;1.73;;;10.20;52.90;;;;;;5047036;28;20064;-62
2024/01/17 11:07:24;;;;;;;6.55;1.90;;;10.20;52.90;;;;;;5042470;28;20091;-60
2024/01/17 11:09:55;;;;;;;2.80;1.92;;;10.10;52.80;;;;;;5030629;28;20055;-62
2024/01/17 11:12:24;;;;;;;3.88;2.17;;;10.00;52.90;;;;;;5042143;28;20057;-62
2024/01/17 11:14:55;;;;;;;4.20;2.53;;;9.90;53.00;;;;;;5052492;28;20223;-61
2024/01/17 11:17:25;;;;;;;14.02;3.05;;;9.80;53.30;;;;;;5040332;28;20131;-63
2024/01/17 11:20:07;;;;;;;9.95;2.58;;;9.70;53.40;;;;;;5035818;28;20206;-61
2024/01/17 11:22:39;;;;;;;7.90;3.25;;;9.60;53.30;;;;;;5053722;28;20080;-61
2024/01/17 11:25:17;;;;;;;16.35;2.67;;;9.50;53.60;;;;;;5034257;28;20090;-63
2024/01/17 11:27:54;;;;;;;15.10;3.47;;;9.50;53.70;;;;;;5029706;28;20052;-61
2024/01/17 11:30:33;;;;;;;25.25;3.22;;;9.40;53.70;;;;;;5035126;28;20068;-63
2024/01/17 11:33:07;;;;;;;4.78;1.65;;;9.50;53.90;;;;;;5044718;28;20108;-63
2024/01/17 11:35:43;;;;;;;3.95;2.22;;;9.50;54.50;;;;;;5040279;28;20067;-62
2024/01/17 11:38:14;;;;;;;5.72;2.75;;;9.40;53.80;;;;;;5039595;28;20083;-65
2024/01/17 11:40:43;;;;;;;4.47;1.90;;;9.40;53.80;;;;;;5036674;28;20151;-60
2024/01/17 11:43:11;;;;;;;32.00;2.80;;;9.30;53.90;;;;;;5060853;28;20056;-63
2024/01/17 11:45:40;;;;;;;11.75;2.75;;;9.30;54.10;;;;;;5051920;28;20079;-62
2024/01/17 11:48:19;;;;;;;6.70;2.42;;;9.20;54.10;;;;;;5061932;28;20059;-61
2024/01/17 11:50:58;;;;;;;10.02;2.42;;;9.10;54.30;;;;;;5055260;28;20112;-62
2024/01/17 11:53:29;;;;;;;5.80;1.90;;;9.10;54.50;;;;;;5068691;28;20051;-63
2024/01/17 11:56:01;;;;;;;3.45;1.98;;;8.90;54.10;;;;;;5052324;28;20060;-62
2024/01/17 11:58:42;;;;;;;4.78;1.92;;;8.80;54.30;;;;;;5054843;28;20133;-61
2024/01/17 12:01:13;;;;;;;6.97;3.28;;;8.60;54.50;;;;;;5067673;28;20052;-63
2024/01/17 12:03:42;;;;;;;4.35;1.90;;;8.60;54.90;;;;;;5066508;28;20067;-62
2024/01/17 12:06:12;;;;;;;5.78;1.83;;;8.70;55.10;;;;;;5068163;28;20056;-63
2024/01/17 12:08:42;;;;;;;8.00;2.30;;;8.70;55.00;;;;;;5054199;28;20549;-68
2024/01/17 12:11:11;;;;;;;4.68;1.80;;;8.80;55.20;;;;;;5055210;28;20067;-63
2024/01/17 12:13:39;;;;;;;5.18;1.73;;;8.90;55.10;;;;;;5052661;28;20106;-62
2024/01/17 12:16:08;;;;;;;2.40;1.67;;;9.00;55.30;;;;;;5057984;28;20114;-63
2024/01/17 12:18:37;;;;;;;1.48;1.38;;;9.10;55.20;;;;;;5055020;28;20063;-63
2024/01/17 12:21:06;;;;;;;7.63;1.45;;;9.30;54.90;;;;;;5056001;28;20111;-66
2024/01/17 12:23:36;;;;;;;4.65;2.05;;;9.40;54.80;;;;;;5057298;28;20137;-61
2024/01/17 12:26:06;;;;;;;4.18;2.08;;;9.50;55.00;;;;;;5050369;28;20071;-62
2024/01/17 12:28:34;;;;;;;3.28;2.35;;;9.50;54.80;;;;;;5058260;28;20510;-64
2024/01/17 12:31:05;;;;;;;10.57;3.17;;;9.60;54.70;;;;;;5055946;28;20064;-65
2024/01/17 12:33:35;;;;;;;6.40;2.10;;;9.70;54.90;;;;;;5051829;28;20072;-64
2024/01/17 12:36:06;;;;;;;20.30;2.05;;;9.80;54.40;;;;;;5056071;28;20060;-64
2024/01/17 12:38:35;;;;;;;6.90;3.03;;;9.90;54.70;;;;;;5057223;28;20072;-63
2024/01/17 12:41:07;;;;;;;9.63;2.63;;;10.00;54.60;;;;;;5076242;28;20479;-63
2024/01/17 12:43:37;;;;;;;5.10;2.45;;;10.20;54.60;;;;;;5056474;28;20343;-66
2024/01/17 12:46:07;;;;;;;7.47;2.60;;;10.30;54.40;;;;;;5060801;28;20062;-62
2024/01/17 12:48:36;;;;;;;5.70;2.65;;;10.40;54.20;;;;;;5059970;28;20124;-63
2024/01/17 12:51:06;;;;;;;5.88;1.98;;;10.40;53.80;;;;;;5055678;28;20143;-64
2024/01/17 12:53:39;;;;;;;4.50;2.53;;;10.40;54.00;;;;;;5054774;28;20055;-64
2024/01/17 12:56:11;;;;;;;6.65;2.75;;;10.40;53.80;;;;;;5056243;28;20172;-62
2024/01/17 12:58:40;;;;;;;8.27;2.17;;;10.40;53.70;;;;;;5058653;28;20055;-63
2024/01/17 13:01:12;;;;;;;3.13;1.17;;;10.50;53.70;;;;;;5060124;28;20060;-63
2024/01/17 13:03:42;;;;;;;4.78;2.20;;;10.40;54.00;;;;;;5052866;28;20125;-61
2024/01/17 13:06:12;;;;;;;3.47;2.00;;;10.40;53.40;;;;;;5072774;28;20047;-63